Terminal Aerodrome Forecast
Issued by NWS

Home | Current Version | Previous Version | Text Only | Print | Product List | Glossary On
Versions: 1 2 3 4 5 6 7 8 9 10 11 12 13 14 15 16 17 18 19 20 21 22 23 24 25 26 27 28 29 30 31 32
031
FTUS43 KDMX 261133
TAFFOD
TAF
KFOD 261133Z 2612/2712 16007KT P6SM SKC
     FM261900 16009KT P6SM BKN150
     FM270000 12010KT P6SM VCTS SCT025 OVC040CB
     FM270300 16008KT 4SM TSRA BKN021CB OVC070
     FM270800 15008KT P6SM VCTS OVC050CB=

USA.gov is the U.S. government's official web portal to all federal, state and local government web resources and services.